createdAt,value
2022-12-19T00:03:21.280Z,30.50
2022-12-19T00:08:25.710Z,28.13
2022-12-19T00:13:33.580Z,31.20
2022-12-19T00:18:41.256Z,41.77
2022-12-19T00:23:46.661Z,23.77
2022-12-19T00:28:51.149Z,28.77
2022-12-19T00:33:54.031Z,26.50
2022-12-19T00:39:01.331Z,25.83
2022-12-19T00:44:06.066Z,31.10
2022-12-19T00:49:10.501Z,24.97
2022-12-19T00:54:14.848Z,23.33
2022-12-19T00:59:20.094Z,28.87
2022-12-19T01:04:30.364Z,21.87
2022-12-19T01:09:37.148Z,24.27
2022-12-19T01:14:39.960Z,30.77
2022-12-19T01:19:44.729Z,23.40
2022-12-19T01:24:49.179Z,27.20
2022-12-19T01:29:53.008Z,26.70
2022-12-19T01:34:55.944Z,21.40
2022-12-19T01:40:00.030Z,23.50
2022-12-19T01:45:21.048Z,27.83
2022-12-19T01:50:28.757Z,20.90
2022-12-19T01:55:32.920Z,27.67
2022-12-19T02:00:35.724Z,26.37
2022-12-19T02:05:39.107Z,27.40
2022-12-19T02:10:43.327Z,29.93
2022-12-19T02:15:51.773Z,25.73
2022-12-19T02:21:21.434Z,24.57
2022-12-19T02:26:45.386Z,33.77
2022-12-19T02:31:52.155Z,29.30
2022-12-19T02:36:58.940Z,32.50
2022-12-19T02:42:03.866Z,35.00
2022-12-19T02:47:09.886Z,31.17
2022-12-19T02:52:29.933Z,39.03
2022-12-19T02:57:35.048Z,33.63
2022-12-19T03:02:50.455Z,27.23
2022-12-19T03:08:06.113Z,29.63
2022-12-19T03:13:17.013Z,22.43
2022-12-19T03:18:22.081Z,23.73
2022-12-19T03:23:24.969Z,21.70
2022-12-19T03:28:29.555Z,24.63
2022-12-19T03:33:34.165Z,23.20
2022-12-19T03:38:38.107Z,23.40
2022-12-19T03:43:41.333Z,20.23
2022-12-19T03:48:48.081Z,30.40
2022-12-19T03:54:00.224Z,20.53
2022-12-19T03:59:08.480Z,20.37
2022-12-19T04:04:13.401Z,20.17
2022-12-19T04:09:22.148Z,18.23
2022-12-19T04:14:27.304Z,19.40
2022-12-19T04:19:37.425Z,14.13
2022-12-19T04:24:43.675Z,16.53
2022-12-19T04:29:48.350Z,13.97
2022-12-19T04:34:52.579Z,8.37
2022-12-19T04:39:55.406Z,15.10
2022-12-19T04:44:58.422Z,14.43
2022-12-19T04:50:02.638Z,11.07
2022-12-19T04:55:06.066Z,16.53
2022-12-19T05:00:11.211Z,10.70
2022-12-19T05:05:16.522Z,9.80
2022-12-19T05:10:19.368Z,12.43
2022-12-19T05:15:22.183Z,11.63
2022-12-19T05:20:26.352Z,13.53
2022-12-19T05:25:29.306Z,14.70
2022-12-19T05:30:32.391Z,8.97
2022-12-19T05:35:37.056Z,10.77
2022-12-19T05:40:39.893Z,9.33
2022-12-19T05:45:42.718Z,11.97
2022-12-19T05:50:50.549Z,13.67
2022-12-19T05:55:53.335Z,11.47
2022-12-19T06:01:00.696Z,9.53
2022-12-19T06:06:06.215Z,12.63
2022-12-19T06:11:10.610Z,9.50
2022-12-19T06:16:14.823Z,9.83
2022-12-19T06:21:23.217Z,10.27
2022-12-19T06:26:26.097Z,15.10
2022-12-19T06:31:29.025Z,14.63
2022-12-19T06:36:33.296Z,12.80
2022-12-19T06:41:53.949Z,13.60
2022-12-19T06:46:56.794Z,13.77
2022-12-19T06:52:06.317Z,16.57
2022-12-19T06:57:11.875Z,12.27
2022-12-19T07:02:23.463Z,16.10
2022-12-19T07:07:28.859Z,11.80
2022-12-19T07:12:31.780Z,11.73
2022-12-19T07:17:34.799Z,13.80
2022-12-19T07:22:38.996Z,9.63
2022-12-19T07:27:41.832Z,13.73
2022-12-19T07:32:46.418Z,14.73
2022-12-19T07:37:53.337Z,18.20
2022-12-19T07:42:56.386Z,16.20
2022-12-19T07:48:01.411Z,17.13
2022-12-19T07:53:05.570Z,18.43
2022-12-19T07:58:10.318Z,14.70
2022-12-19T08:03:13.150Z,17.77
2022-12-19T08:08:17.842Z,15.73
2022-12-19T08:13:20.833Z,13.07
2022-12-19T08:18:23.773Z,13.17
2022-12-19T08:23:30.265Z,11.87
2022-12-19T08:28:34.164Z,13.03
2022-12-19T08:33:37.630Z,12.33
2022-12-19T08:38:42.272Z,14.23
2022-12-19T08:43:51.446Z,15.60
2022-12-19T08:48:54.721Z,15.50
2022-12-19T08:53:58.968Z,10.43
2022-12-19T08:59:01.893Z,14.27
2022-12-19T09:05:59.489Z,12.00
2022-12-19T09:09:32.182Z,12.40
2022-12-19T09:14:35.600Z,11.87
2022-12-19T09:19:38.428Z,14.20
2022-12-19T09:24:44.159Z,13.93
2022-12-19T09:29:47.040Z,15.53
2022-12-19T09:34:49.858Z,13.70
2022-12-19T09:39:54.063Z,14.30
2022-12-19T09:45:15.484Z,15.50
2022-12-19T09:50:37.186Z,19.40
2022-12-19T09:55:42.722Z,13.63
2022-12-19T10:00:47.961Z,14.33
2022-12-19T10:07:07.741Z,12.20
2022-12-19T10:12:43.073Z,13.13
2022-12-19T10:17:24.043Z,12.43
2022-12-19T10:22:36.795Z,13.50
2022-12-19T10:27:58.760Z,17.53
2022-12-19T10:33:11.616Z,16.53
2022-12-19T10:38:25.419Z,15.47
2022-12-19T10:43:44.476Z,12.07
2022-12-19T10:48:49.523Z,15.67
2022-12-19T10:53:57.054Z,15.17
2022-12-19T10:59:03.149Z,13.30
2022-12-19T11:04:23.664Z,10.47
2022-12-19T11:09:29.814Z,12.33
2022-12-19T11:19:37.096Z,12.43
2022-12-19T11:29:16.121Z,12.60
2022-12-19T11:30:44.329Z,10.10
2022-12-19T11:36:40.318Z,9.17
2022-12-19T11:41:47.707Z,13.63
2022-12-19T11:46:57.612Z,8.17
2022-12-19T11:52:05.515Z,13.03
2022-12-19T11:57:11.084Z,15.40
2022-12-19T12:02:39.551Z,8.33
2022-12-19T12:09:51.769Z,10.33
2022-12-19T12:22:27.825Z,14.60
2022-12-19T12:31:18.383Z,10.90
2022-12-19T12:31:47.313Z,11.13
2022-12-19T12:32:03.187Z,8.40
2022-12-19T12:41:06.039Z,8.10
2022-12-19T12:46:14.695Z,6.13
2022-12-19T12:51:19.559Z,7.20
2022-12-19T12:56:22.515Z,7.20
2022-12-19T13:01:33.882Z,7.43
2022-12-19T13:06:40.223Z,9.53
2022-12-19T13:12:05.462Z,9.23
2022-12-19T13:17:09.038Z,8.63
2022-12-19T13:22:24.539Z,8.50
2022-12-19T13:27:41.503Z,10.07
2022-12-19T13:33:12.441Z,8.70
2022-12-19T13:39:57.349Z,8.57
2022-12-19T13:43:47.686Z,8.47
2022-12-19T13:48:52.197Z,8.13
2022-12-19T13:53:59.903Z,13.97
2022-12-19T13:59:04.733Z,7.43
2022-12-19T14:04:09.953Z,7.33
2022-12-19T14:11:29.559Z,18.13
2022-12-19T14:15:13.115Z,8.20
2022-12-19T14:22:03.625Z,6.97
2022-12-19T14:28:18.191Z,9.57
2022-12-19T14:31:15.070Z,8.87
2022-12-19T14:36:26.120Z,8.00
2022-12-19T14:42:01.443Z,10.10
2022-12-19T14:54:01.974Z,7.90
2022-12-19T14:54:33.735Z,8.53
2022-12-19T14:58:53.652Z,6.03
2022-12-19T15:03:37.224Z,10.23
2022-12-19T15:11:00.469Z,8.03
2022-12-19T15:14:52.997Z,10.97
2022-12-19T15:19:28.592Z,6.87
2022-12-19T15:24:31.700Z,8.20
2022-12-19T15:29:36.284Z,6.97
2022-12-19T15:34:50.457Z,8.47
2022-12-19T15:39:54.318Z,8.87
2022-12-19T15:45:00.233Z,8.33
2022-12-19T15:50:11.585Z,8.27
2022-12-19T15:55:15.708Z,14.23
2022-12-19T16:00:23.407Z,8.33
2022-12-19T16:05:29.108Z,6.60
2022-12-19T16:10:32.208Z,7.37
2022-12-19T16:15:38.357Z,8.87
2022-12-19T16:20:43.057Z,8.83
2022-12-19T16:25:48.327Z,7.70
2022-12-19T16:30:52.804Z,8.13
2022-12-19T16:36:05.235Z,10.73
2022-12-19T16:41:12.520Z,6.80
2022-12-19T16:46:19.940Z,5.57
2022-12-19T16:51:24.461Z,9.90
2022-12-19T16:56:31.135Z,6.47
2022-12-19T17:01:35.765Z,5.00
2022-12-19T17:06:38.609Z,3.67
2022-12-19T17:11:41.973Z,9.60
2022-12-19T17:16:46.390Z,4.73
2022-12-19T17:21:49.564Z,7.93
2022-12-19T17:26:52.502Z,5.90
2022-12-19T17:31:56.754Z,8.10
2022-12-19T17:37:00.927Z,7.83
2022-12-19T17:42:14.246Z,4.00
2022-12-19T17:47:20.079Z,11.60
2022-12-19T17:52:22.909Z,4.47
2022-12-19T17:57:26.854Z,5.40
2022-12-19T18:02:31.467Z,6.70
2022-12-19T18:07:34.724Z,5.33
2022-12-19T18:12:38.796Z,5.57
2022-12-19T18:17:43.460Z,4.73
2022-12-19T18:22:47.992Z,5.50
2022-12-19T18:27:51.543Z,5.60
2022-12-19T18:32:57.703Z,8.37
2022-12-19T18:38:01.366Z,4.97
2022-12-19T18:43:04.227Z,6.47
2022-12-19T18:48:14.046Z,9.77
2022-12-19T18:53:21.626Z,6.27
2022-12-19T18:58:24.492Z,6.70
2022-12-19T19:03:30.826Z,6.87
2022-12-19T19:08:35.242Z,8.33
2022-12-19T19:13:50.451Z,4.83
2022-12-19T19:18:55.908Z,7.70
2022-12-19T19:24:01.930Z,8.83
2022-12-19T19:29:05.084Z,8.73
2022-12-19T19:34:12.668Z,4.10
2022-12-19T19:39:15.724Z,6.03
2022-12-19T19:44:18.708Z,7.10
2022-12-19T19:49:23.241Z,5.30
2022-12-19T19:54:26.018Z,7.00
2022-12-19T19:59:30.622Z,7.70
2022-12-19T20:04:36.232Z,10.53
2022-12-19T20:09:39.175Z,5.53
2022-12-19T20:14:41.967Z,6.57
2022-12-19T20:19:46.146Z,7.27
2022-12-19T20:24:49.250Z,4.80
2022-12-19T20:29:54.986Z,6.30
2022-12-19T20:34:59.380Z,5.60
2022-12-19T20:40:02.300Z,6.47
2022-12-19T20:45:06.184Z,6.40
2022-12-19T20:50:12.816Z,3.80
2022-12-19T20:55:15.983Z,7.20
2022-12-19T21:00:20.061Z,4.00
2022-12-19T21:05:24.343Z,10.90
2022-12-19T21:10:27.181Z,9.03
2022-12-19T21:15:31.444Z,7.13
2022-12-19T21:20:36.115Z,4.17
2022-12-19T21:25:39.278Z,7.30
2022-12-19T21:30:42.471Z,7.27
2022-12-19T21:35:46.647Z,4.30
2022-12-19T21:40:49.665Z,3.97
2022-12-19T21:45:52.437Z,4.20
2022-12-19T21:50:57.584Z,6.23
2022-12-19T21:56:04.963Z,4.83
2022-12-19T22:01:09.432Z,7.20
2022-12-19T22:06:21.008Z,7.47
2022-12-19T22:11:31.832Z,4.50
2022-12-19T22:16:35.534Z,4.53
2022-12-19T22:21:40.451Z,3.73
2022-12-19T22:26:43.576Z,7.63
2022-12-19T22:31:47.043Z,5.43
2022-12-19T22:36:51.269Z,4.63
2022-12-19T22:41:54.109Z,4.30
2022-12-19T22:46:57.026Z,8.27
2022-12-19T22:52:01.204Z,6.07
2022-12-19T22:57:04.012Z,8.80
2022-12-19T23:02:07.066Z,4.57
2022-12-19T23:07:11.450Z,3.80
2022-12-19T23:12:14.316Z,5.10
2022-12-19T23:17:17.471Z,4.30
2022-12-19T23:22:21.684Z,5.23
2022-12-19T23:27:24.590Z,5.60
2022-12-19T23:32:27.533Z,4.27
2022-12-19T23:37:31.721Z,7.43
2022-12-19T23:42:34.609Z,4.60
2022-12-19T23:47:37.514Z,6.93
2022-12-19T23:52:44.529Z,7.30
2022-12-19T23:57:47.434Z,4.40
